createdAt,value
2023-05-06T00:02:04.530Z,9.16
2023-05-06T00:05:09.332Z,9.11
2023-05-06T00:08:13.519Z,9.10
2023-05-06T00:11:17.542Z,9.09
2023-05-06T00:14:21.658Z,9.09
2023-05-06T00:17:25.690Z,9.11
2023-05-06T00:20:29.736Z,9.14
2023-05-06T00:23:33.677Z,9.19
2023-05-06T00:26:37.732Z,9.18
2023-05-06T00:29:41.624Z,9.13
2023-05-06T00:32:45.699Z,9.05
2023-05-06T00:35:52.351Z,8.98
2023-05-06T00:38:56.448Z,8.92
2023-05-06T00:42:02.387Z,8.86
2023-05-06T00:45:07.693Z,8.80
2023-05-06T00:48:12.490Z,8.73
2023-05-06T00:51:16.909Z,8.66
2023-05-06T00:54:21.667Z,8.61
2023-05-06T00:57:25.835Z,8.54
2023-05-06T01:00:30.168Z,8.51
2023-05-06T01:03:34.211Z,8.49
2023-05-06T01:06:45.590Z,8.46
2023-05-06T01:10:10.813Z,8.46
2023-05-06T01:13:39.980Z,8.44
2023-05-06T01:16:47.976Z,8.45
2023-05-06T01:19:58.511Z,8.50
2023-05-06T01:23:11.480Z,8.51
2023-05-06T01:26:15.355Z,8.51
2023-05-06T01:29:19.349Z,8.52
2023-05-06T01:32:33.965Z,8.51
2023-05-06T01:36:08.947Z,8.48
2023-05-06T01:39:18.261Z,8.45
2023-05-06T01:42:24.535Z,8.42
2023-05-06T01:45:34.029Z,8.38
2023-05-06T01:48:39.854Z,8.36
2023-05-06T01:51:51.470Z,8.31
2023-05-06T01:54:55.434Z,8.28
2023-05-06T01:57:59.544Z,8.25
2023-05-06T02:01:04.035Z,8.21
2023-05-06T02:04:08.063Z,8.20
2023-05-06T02:07:12.111Z,8.15
2023-05-06T02:10:16.176Z,8.11
2023-05-06T02:13:24.796Z,8.12
2023-05-06T02:16:29.678Z,8.12
2023-05-06T02:19:34.426Z,8.11
2023-05-06T02:22:38.476Z,8.09
2023-05-06T02:25:43.311Z,8.05
2023-05-06T02:28:47.327Z,8.04
2023-05-06T02:31:51.404Z,8.03
2023-05-06T02:34:55.461Z,8.03
2023-05-06T02:37:59.874Z,8.02
2023-05-06T02:41:04.313Z,8.01
2023-05-06T02:44:08.244Z,8.00
2023-05-06T02:47:12.234Z,7.98
2023-05-06T02:50:17.111Z,7.96
2023-05-06T02:53:21.196Z,7.93
2023-05-06T02:56:26.422Z,7.90
2023-05-06T02:59:30.436Z,7.87
2023-05-06T03:02:34.516Z,7.86
2023-05-06T03:05:38.552Z,7.85
2023-05-06T03:08:42.485Z,7.84
2023-05-06T03:11:46.514Z,7.86
2023-05-06T03:14:50.928Z,7.85
2023-05-06T03:17:54.853Z,7.84
2023-05-06T03:20:59.090Z,7.83
2023-05-06T03:24:03.684Z,7.80
2023-05-06T03:27:08.333Z,7.79
2023-05-06T03:30:13.631Z,7.80
2023-05-06T03:33:17.695Z,7.81
2023-05-06T03:36:24.082Z,7.83
2023-05-06T03:39:29.111Z,7.82
2023-05-06T03:42:33.534Z,7.82
2023-05-06T03:45:38.326Z,7.89
2023-05-06T03:48:42.590Z,7.95
2023-05-06T03:51:48.663Z,7.97
2023-05-06T03:54:52.976Z,7.98
2023-05-06T03:57:57.193Z,7.97
2023-05-06T04:01:01.426Z,7.98
2023-05-06T04:04:06.081Z,7.99
2023-05-06T04:07:10.660Z,8.03
2023-05-06T04:10:14.759Z,8.08
2023-05-06T04:13:20.253Z,8.12
2023-05-06T04:16:24.633Z,8.13
2023-05-06T04:19:28.696Z,8.12
2023-05-06T04:22:33.351Z,8.10
2023-05-06T04:25:38.056Z,8.11
2023-05-06T04:28:42.865Z,8.14
2023-05-06T04:31:47.493Z,8.19
2023-05-06T04:34:53.270Z,8.24
2023-05-06T04:37:57.731Z,8.30
2023-05-06T04:41:05.519Z,8.38
2023-05-06T04:44:10.336Z,8.45
2023-05-06T04:47:15.140Z,8.49
2023-05-06T04:50:20.722Z,8.54
2023-05-06T04:53:25.148Z,8.59
2023-05-06T04:56:29.367Z,8.62
2023-05-06T04:59:33.884Z,8.63
2023-05-06T05:02:38.286Z,8.67
2023-05-06T05:05:42.974Z,8.69
2023-05-06T05:08:53.047Z,8.74
2023-05-06T05:11:58.357Z,8.78
2023-05-06T05:15:04.221Z,8.80
2023-05-06T05:18:09.043Z,8.87
2023-05-06T05:21:13.706Z,8.94
2023-05-06T05:24:18.114Z,9.03
2023-05-06T05:27:22.334Z,9.10
2023-05-06T05:30:26.552Z,9.19
2023-05-06T05:33:31.231Z,9.26
2023-05-06T05:36:35.941Z,9.28
2023-05-06T05:39:40.949Z,9.30
2023-05-06T05:42:46.190Z,9.33
2023-05-06T05:45:57.404Z,9.34
2023-05-06T05:49:01.700Z,9.37
2023-05-06T05:52:07.261Z,9.42
2023-05-06T05:55:11.689Z,9.44
2023-05-06T05:58:16.282Z,9.48
2023-05-06T06:01:20.751Z,9.53
2023-05-06T06:04:25.721Z,9.56
2023-05-06T06:07:29.896Z,9.63
2023-05-06T06:10:33.951Z,9.67
2023-05-06T06:13:40.482Z,9.73
2023-05-06T06:16:45.054Z,9.82
2023-05-06T06:19:50.756Z,9.85
2023-05-06T06:22:54.882Z,9.89
2023-05-06T06:25:59.097Z,9.93
2023-05-06T06:29:03.117Z,9.98
2023-05-06T06:32:07.255Z,10.05
2023-05-06T06:35:11.552Z,10.12
2023-05-06T06:38:15.890Z,10.17
2023-05-06T06:41:19.900Z,10.20
2023-05-06T06:44:24.359Z,10.24
2023-05-06T06:47:28.332Z,10.27
2023-05-06T06:50:32.971Z,10.28
2023-05-06T06:53:36.897Z,10.34
2023-05-06T06:56:40.999Z,10.39
2023-05-06T06:59:45.426Z,10.43
2023-05-06T07:02:49.515Z,10.49
2023-05-06T07:05:53.766Z,10.58
2023-05-06T07:08:57.783Z,10.68
2023-05-06T07:12:01.909Z,10.78
2023-05-06T07:15:07.591Z,10.86
2023-05-06T07:18:11.983Z,10.95
2023-05-06T07:21:16.304Z,11.03
2023-05-06T07:24:20.628Z,11.11
2023-05-06T07:27:24.640Z,11.18
2023-05-06T07:30:28.586Z,11.25
2023-05-06T07:33:32.776Z,11.32
2023-05-06T07:36:40.910Z,11.39
2023-05-06T07:39:45.006Z,11.45
2023-05-06T07:42:48.905Z,11.49
2023-05-06T07:45:52.890Z,11.52
2023-05-06T07:48:56.950Z,11.55
2023-05-06T07:52:01.280Z,11.59
2023-05-06T07:55:06.199Z,11.62
2023-05-06T07:58:10.154Z,11.68
2023-05-06T08:01:14.140Z,11.73
2023-05-06T08:04:18.209Z,11.72
2023-05-06T08:07:22.195Z,11.74
2023-05-06T08:10:26.290Z,11.75
2023-05-06T08:13:30.712Z,11.72
2023-05-06T08:16:35.827Z,11.72
2023-05-06T08:19:39.778Z,11.71
2023-05-06T08:22:43.709Z,11.73
2023-05-06T08:25:47.694Z,11.77
2023-05-06T08:28:51.678Z,11.81
2023-05-06T08:31:55.675Z,11.82
2023-05-06T08:35:00.790Z,11.84
2023-05-06T08:38:04.765Z,11.89
2023-05-06T08:41:11.772Z,11.92
2023-05-06T08:44:19.252Z,11.95
2023-05-06T08:47:23.318Z,11.97
2023-05-06T08:50:27.718Z,11.98
2023-05-06T08:53:33.968Z,11.99
2023-05-06T08:56:40.354Z,12.03
2023-05-06T08:59:45.091Z,12.09
2023-05-06T09:02:49.287Z,12.12
2023-05-06T09:05:54.330Z,12.11
2023-05-06T09:08:58.591Z,12.08
2023-05-06T09:12:02.884Z,12.06
2023-05-06T09:15:09.410Z,12.05
2023-05-06T09:18:14.874Z,12.02
2023-05-06T09:21:18.827Z,12.01
2023-05-06T09:24:23.819Z,12.02
2023-05-06T09:27:31.292Z,12.01
2023-05-06T09:30:40.498Z,11.99
2023-05-06T09:33:44.625Z,12.06
2023-05-06T09:36:48.638Z,12.13
2023-05-06T09:39:56.985Z,12.19
2023-05-06T09:43:01.367Z,12.28
2023-05-06T09:46:06.554Z,12.34
2023-05-06T09:49:10.837Z,12.39
2023-05-06T09:52:15.314Z,12.43
2023-05-06T09:55:20.083Z,12.47
2023-05-06T09:58:24.227Z,12.45
2023-05-06T10:01:36.747Z,12.47
2023-05-06T10:04:42.575Z,12.50
2023-05-06T10:07:48.403Z,12.52
2023-05-06T10:10:53.093Z,12.51
2023-05-06T10:13:59.879Z,12.51
2023-05-06T10:17:09.621Z,12.50
2023-05-06T10:20:15.088Z,12.54
2023-05-06T10:23:44.486Z,12.58
2023-05-06T10:26:51.135Z,12.60
2023-05-06T10:29:59.669Z,12.63
2023-05-06T10:33:06.686Z,12.64
2023-05-06T10:36:21.602Z,12.65
2023-05-06T10:39:26.576Z,12.67
2023-05-06T10:42:35.448Z,12.64
2023-05-06T10:45:58.871Z,12.60
2023-05-06T10:49:11.312Z,12.54
2023-05-06T10:52:19.802Z,12.50
2023-05-06T10:55:34.402Z,12.46
2023-05-06T10:58:39.761Z,12.42
2023-05-06T11:01:44.893Z,12.40
2023-05-06T11:04:59.683Z,12.37
2023-05-06T11:08:10.708Z,12.34
2023-05-06T11:11:52.472Z,12.29
2023-05-06T11:15:35.088Z,12.25
2023-05-06T11:18:39.077Z,12.22
2023-05-06T11:21:43.062Z,12.20
2023-05-06T11:24:47.025Z,12.14
2023-05-06T11:27:51.071Z,12.10
2023-05-06T11:30:55.930Z,12.03
2023-05-06T11:34:02.350Z,11.95
2023-05-06T11:37:07.974Z,11.87
2023-05-06T11:40:16.077Z,11.78
2023-05-06T11:43:20.089Z,11.68
2023-05-06T11:46:29.936Z,11.59
2023-05-06T11:49:42.546Z,11.53
2023-05-06T11:52:46.560Z,11.42
2023-05-06T11:55:53.646Z,11.34
2023-05-06T11:58:57.563Z,11.28
2023-05-06T12:02:04.554Z,11.24
2023-05-06T12:05:09.523Z,11.19
2023-05-06T12:08:24.022Z,11.15
2023-05-06T12:11:31.243Z,11.08
2023-05-06T12:14:36.049Z,11.04
2023-05-06T12:17:41.606Z,10.99
2023-05-06T12:20:45.698Z,10.87
2023-05-06T12:24:01.201Z,10.76
2023-05-06T12:27:05.248Z,10.71
2023-05-06T12:30:11.321Z,10.67
2023-05-06T12:33:15.942Z,10.65
2023-05-06T12:36:20.160Z,10.69
2023-05-06T12:39:34.310Z,10.68
2023-05-06T12:42:38.296Z,10.68
2023-05-06T12:45:42.418Z,10.58
2023-05-06T12:48:59.643Z,10.51
2023-05-06T12:52:08.593Z,10.44
2023-05-06T12:55:12.648Z,10.40
2023-05-06T12:58:18.551Z,10.35
2023-05-06T13:01:22.683Z,10.33
2023-05-06T13:04:27.520Z,10.29
2023-05-06T13:07:31.444Z,10.21
2023-05-06T13:10:35.354Z,10.12
2023-05-06T13:13:39.303Z,10.04
2023-05-06T13:16:43.922Z,10.02
2023-05-06T13:19:48.102Z,9.97
2023-05-06T13:22:55.221Z,9.93
2023-05-06T13:26:05.221Z,9.86
2023-05-06T13:29:09.727Z,9.79
2023-05-06T13:32:13.746Z,9.75
2023-05-06T13:35:17.821Z,9.71
2023-05-06T13:38:22.148Z,9.70
2023-05-06T13:41:26.479Z,9.71
2023-05-06T13:44:30.495Z,9.74
2023-05-06T13:47:34.537Z,9.72
2023-05-06T13:50:38.626Z,9.70
2023-05-06T13:53:42.662Z,9.67
2023-05-06T13:56:46.603Z,9.64
2023-05-06T13:59:50.848Z,9.57
2023-05-06T14:02:54.848Z,9.54
2023-05-06T14:05:59.227Z,9.54
2023-05-06T14:09:03.732Z,9.54
2023-05-06T14:12:07.636Z,9.52
2023-05-06T14:15:12.091Z,9.52
2023-05-06T14:18:16.404Z,9.55
2023-05-06T14:21:20.930Z,9.55
2023-05-06T14:24:24.945Z,9.51
2023-05-06T14:27:28.962Z,9.51
2023-05-06T14:30:34.426Z,9.49
2023-05-06T14:33:38.943Z,9.44
2023-05-06T14:36:44.256Z,9.43
2023-05-06T14:39:48.206Z,9.43
2023-05-06T14:42:53.631Z,9.44
2023-05-06T14:45:57.562Z,9.45
2023-05-06T14:49:01.777Z,9.42
2023-05-06T14:52:05.668Z,9.42
2023-05-06T14:55:11.267Z,9.41
2023-05-06T14:58:15.480Z,9.41
2023-05-06T15:01:19.490Z,9.42
2023-05-06T15:04:23.608Z,9.38
2023-05-06T15:07:27.546Z,9.38
2023-05-06T15:10:31.530Z,9.38
2023-05-06T15:13:35.518Z,9.42
2023-05-06T15:16:39.902Z,9.34
2023-05-06T15:19:43.978Z,9.30
2023-05-06T15:22:48.244Z,9.31
2023-05-06T15:25:52.327Z,9.33
2023-05-06T15:28:56.345Z,9.33
2023-05-06T15:32:00.675Z,9.29
2023-05-06T15:35:06.459Z,9.23
2023-05-06T15:38:11.065Z,9.21
2023-05-06T15:41:14.942Z,9.19
2023-05-06T15:44:20.994Z,9.16
2023-05-06T15:47:25.390Z,9.14
2023-05-06T15:50:33.758Z,9.16
2023-05-06T15:53:42.376Z,9.23
2023-05-06T15:56:46.634Z,9.25
2023-05-06T15:59:50.632Z,9.23
2023-05-06T16:02:54.770Z,9.21
2023-05-06T16:05:59.724Z,9.22
2023-05-06T16:09:04.005Z,9.21
2023-05-06T16:12:08.126Z,9.22
2023-05-06T16:15:12.351Z,9.25
2023-05-06T16:18:16.692Z,9.28
2023-05-06T16:21:20.676Z,9.30
2023-05-06T16:24:24.607Z,9.26
2023-05-06T16:27:28.925Z,9.18
2023-05-06T16:30:32.860Z,9.15
2023-05-06T16:33:36.828Z,9.13
2023-05-06T16:36:41.239Z,9.14
2023-05-06T16:39:45.378Z,9.17
2023-05-06T16:42:50.351Z,9.14
2023-05-06T16:45:54.294Z,9.10
2023-05-06T16:48:58.299Z,9.04
2023-05-06T16:52:02.376Z,9.00
2023-05-06T16:55:07.821Z,8.93
2023-05-06T16:58:11.874Z,8.91
2023-05-06T17:01:16.190Z,8.89
2023-05-06T17:04:20.387Z,8.90
2023-05-06T17:07:24.321Z,8.90
2023-05-06T17:10:29.465Z,8.86
2023-05-06T17:13:34.026Z,8.85
2023-05-06T17:16:39.010Z,8.79
2023-05-06T17:19:42.942Z,8.78
2023-05-06T17:22:47.042Z,8.80
2023-05-06T17:25:51.540Z,8.82
2023-05-06T17:28:55.587Z,8.82
2023-05-06T17:32:00.010Z,8.83
2023-05-06T17:35:04.442Z,8.85
2023-05-06T17:38:12.950Z,8.83
2023-05-06T17:41:16.973Z,8.83
2023-05-06T17:44:20.990Z,8.78
2023-05-06T17:47:25.123Z,8.73
2023-05-06T17:50:29.121Z,8.70
2023-05-06T17:53:34.166Z,8.65
2023-05-06T17:56:38.112Z,8.56
2023-05-06T17:59:42.092Z,8.48
2023-05-06T18:02:46.767Z,8.45
2023-05-06T18:05:51.556Z,8.43
2023-05-06T18:08:55.670Z,8.41
2023-05-06T18:11:59.582Z,8.42
2023-05-06T18:15:04.098Z,8.41
2023-05-06T18:18:08.494Z,8.43
2023-05-06T18:21:12.647Z,8.45
2023-05-06T18:24:17.004Z,8.41
2023-05-06T18:27:22.221Z,8.33
2023-05-06T18:30:26.064Z,8.31
2023-05-06T18:33:30.058Z,8.31
2023-05-06T18:36:35.218Z,8.30
2023-05-06T18:39:42.823Z,8.26
2023-05-06T18:42:47.637Z,8.23
2023-05-06T18:45:52.322Z,8.19
2023-05-06T18:48:56.865Z,8.11
2023-05-06T18:52:02.348Z,8.07
2023-05-06T18:55:07.492Z,8.06
2023-05-06T18:58:11.500Z,8.02
2023-05-06T19:01:16.041Z,8.02
2023-05-06T19:04:19.926Z,8.02
2023-05-06T19:07:24.073Z,8.00
2023-05-06T19:10:28.075Z,7.98
2023-05-06T19:13:32.056Z,7.98
2023-05-06T19:16:36.169Z,8.00
2023-05-06T19:19:40.740Z,8.02
2023-05-06T19:22:44.656Z,8.03
2023-05-06T19:25:48.591Z,8.04
2023-05-06T19:28:52.668Z,8.02
2023-05-06T19:31:56.589Z,8.00
2023-05-06T19:35:08.345Z,7.99
2023-05-06T19:38:12.943Z,7.99
2023-05-06T19:41:16.938Z,8.00
2023-05-06T19:44:21.467Z,8.02
2023-05-06T19:47:26.322Z,8.04
2023-05-06T19:50:33.493Z,8.02
2023-05-06T19:53:37.713Z,7.96
2023-05-06T19:56:43.550Z,7.93
2023-05-06T19:59:47.477Z,7.91
2023-05-06T20:02:51.492Z,7.92
2023-05-06T20:05:56.237Z,7.96
2023-05-06T20:09:00.359Z,7.97
2023-05-06T20:12:06.429Z,7.94
2023-05-06T20:15:10.874Z,7.95
2023-05-06T20:18:15.419Z,7.94
2023-05-06T20:21:19.581Z,7.97
2023-05-06T20:24:24.313Z,7.94
2023-05-06T20:27:28.337Z,7.90
2023-05-06T20:30:32.861Z,7.92
2023-05-06T20:33:36.904Z,7.94
2023-05-06T20:36:43.048Z,7.95
2023-05-06T20:39:46.963Z,7.92
2023-05-06T20:42:50.899Z,7.88
2023-05-06T20:45:54.836Z,7.87
2023-05-06T20:48:59.093Z,7.87
2023-05-06T20:52:04.347Z,7.88
2023-05-06T20:55:09.565Z,7.89
2023-05-06T20:58:13.724Z,7.87
2023-05-06T21:01:18.810Z,7.85
2023-05-06T21:04:22.969Z,7.80
2023-05-06T21:07:26.862Z,7.79
2023-05-06T21:10:30.904Z,7.79
2023-05-06T21:13:34.852Z,7.81
2023-05-06T21:16:41.813Z,7.81
2023-05-06T21:19:45.722Z,7.80
2023-05-06T21:22:49.942Z,7.76
2023-05-06T21:25:53.906Z,7.75
2023-05-06T21:28:57.849Z,7.72
2023-05-06T21:32:01.750Z,7.70
2023-05-06T21:35:06.814Z,7.68
2023-05-06T21:38:10.936Z,7.68
2023-05-06T21:41:15.038Z,7.69
2023-05-06T21:44:19.040Z,7.66
2023-05-06T21:47:22.977Z,7.65
2023-05-06T21:50:26.966Z,7.63
2023-05-06T21:53:31.012Z,7.57
2023-05-06T21:56:35.033Z,7.53
2023-05-06T21:59:39.573Z,7.53
2023-05-06T22:02:43.673Z,7.57
2023-05-06T22:05:47.759Z,7.55
2023-05-06T22:08:52.119Z,7.52
2023-05-06T22:11:56.130Z,7.53
2023-05-06T22:15:00.075Z,7.50
2023-05-06T22:18:04.275Z,7.48
2023-05-06T22:21:08.833Z,7.43
2023-05-06T22:24:12.774Z,7.41
2023-05-06T22:27:16.815Z,7.45
2023-05-06T22:30:21.128Z,7.47
2023-05-06T22:33:26.444Z,7.45
2023-05-06T22:36:33.640Z,7.43
2023-05-06T22:39:37.607Z,7.42
2023-05-06T22:42:41.530Z,7.38
2023-05-06T22:45:45.593Z,7.35
2023-05-06T22:48:49.616Z,7.34
2023-05-06T22:51:53.763Z,7.35
2023-05-06T22:54:57.661Z,7.33
2023-05-06T22:58:01.572Z,7.34
2023-05-06T23:01:07.466Z,7.37
2023-05-06T23:04:11.597Z,7.32
2023-05-06T23:07:15.772Z,7.26
2023-05-06T23:10:20.004Z,7.26
2023-05-06T23:13:24.005Z,7.28
2023-05-06T23:16:29.706Z,7.32
2023-05-06T23:19:33.900Z,7.31
2023-05-06T23:22:38.020Z,7.28
2023-05-06T23:25:41.966Z,7.28
2023-05-06T23:28:45.945Z,7.26
2023-05-06T23:31:49.959Z,7.22
2023-05-06T23:34:53.977Z,7.23
2023-05-06T23:37:57.995Z,7.25
2023-05-06T23:41:01.929Z,7.27
2023-05-06T23:44:06.354Z,7.25
2023-05-06T23:47:10.649Z,7.22
2023-05-06T23:50:14.947Z,7.18
2023-05-06T23:53:19.115Z,7.11
2023-05-06T23:56:23.053Z,7.05
2023-05-06T23:59:29.488Z,7.01
